MSC Alexa — 3FPP6 — position and weather

sailwx.info

Track history (hours):
 
Tides and Currents Weather Stations Pressure Air Temp Water Temp Dewpoint Dewpoint Depression Visibility Wind Speed Wind Dir Waves Ship Positions

MSC Alexa

Last reported at 2015-Apr-16 05:16 UTC. Time now 2015-Apr-28 18:14 UTC.
Position N 29°01' W 094°10'.
Warning: this ship's position is 12 days out of date.

Length 243 m; draft 11.1 m.

Type: Ship (hazmat cat D). MMSI: 356904000.

Date/timePositionNaut miles runAvg speedWind from/ knotsBaromVisibWave heightAir tempDewpointWater temp
2015-Apr-16 05:16N 29°01' W 094°10'1113.0
2015-Apr-16 04:28N 29°07' W 094°20'1414.3
2015-Apr-16 03:27N 29°15' W 094°34'1311.5
2015-Apr-16 02:21N 29°21' W 094°47'911.0
2015-Apr-16 01:33N 29°29' W 094°51'1010.1
2015-Apr-16 00:34N 29°37' W 094°58'2 1.8
2015-Apr-15 23:32N 29°37' W 095°00'0 0.0
2015-Apr-15 22:31N 29°37' W 095°00'0 0.0
2015-Apr-15 18:33N 29°37' W 095°00'0 0.0
2015-Apr-15 17:29N 29°37' W 095°00'0 0.0
2015-Apr-15 16:29N 29°37' W 095°00'0 0.0
2015-Apr-15 15:31N 29°37' W 095°00'0 0.0
2015-Apr-15 14:31N 29°37' W 095°00'0 0.0
2015-Apr-15 13:33N 29°37' W 095°00'0 0.0
2015-Apr-15 12:33N 29°37' W 095°00'0 0.0
2015-Apr-15 11:33N 29°37' W 095°00'0 0.0
2015-Apr-15 10:29N 29°37' W 095°00'0 0.0
2015-Apr-15 09:32N 29°37' W 095°00'0 0.0
2015-Apr-15 08:31N 29°37' W 095°00'0 0.0
2015-Apr-15 07:31N 29°37' W 095°00'0 0.0
2015-Apr-15 06:33N 29°37' W 095°00'0 0.0
2015-Apr-15 05:33N 29°37' W 095°00'0 0.0
2015-Apr-15 04:33N 29°37' W 095°00'0 0.0
2015-Apr-15 03:32N 29°37' W 095°00'0 0.0
2015-Apr-15 02:29N 29°37' W 095°00'0 0.0
2015-Apr-15 01:31N 29°37' W 095°00'0 0.0
2015-Apr-15 00:31N 29°37' W 095°00'0 0.0
2015-Apr-14 23:33N 29°37' W 095°00'0 0.1
2015-Apr-14 22:33N 29°37' W 095°00'7 7.4
2015-Apr-14 21:33N 29°32' W 094°54'1312.9
2015-Apr-14 20:33N 29°21' W 094°47'1210.2
2015-Apr-14 19:25N 29°17' W 094°34'56615.6
2015-Apr-13 07:13N 19°55' W 095°51'1216.8
2015-Apr-13 06:31N 19°44' W 095°53'1617.0
2015-Apr-13 05:34N 19°28' W 095°56'1616.0
2015-Apr-13 04:33N 19°12' W 096°01'6 6.4
2015-Apr-13 03:33N 19°13' W 096°08'0 0.0
2015-Apr-13 02:33N 19°13' W 096°08'0 0.0
2015-Apr-13 01:33N 19°13' W 096°08'0 0.0
2015-Apr-13 00:32N 19°13' W 096°08'0 0.0
2015-Apr-12 23:32N 19°13' W 096°08'0 0.0
2015-Apr-12 22:32N 19°13' W 096°08'0 0.0
2015-Apr-12 21:31N 19°13' W 096°08'0 0.0
2015-Apr-12 20:31N 19°13' W 096°08'0 0.0
2015-Apr-12 19:30N 19°13' W 096°08'0 0.0
2015-Apr-12 18:33N 19°13' W 096°08'4 4.2
2015-Apr-12 17:33N 19°11' W 096°04'7 7.0
2015-Apr-12 16:33N 19°18' W 096°00'1212.2
2015-Apr-12 15:34N 19°29' W 096°04'  
Track history (hours):
 
Tides and Currents Weather Stations Pressure Air Temp Water Temp Dewpoint Dewpoint Depression Visibility Wind Speed Wind Dir Waves Ship Positions

MSC Alexa

Last reported at 2015-Apr-16 05:16 UTC. Time now 2015-Apr-28 18:14 UTC.
Position N 29°01' W 094°10'.
Warning: this ship's position is 12 days out of date.

Length 243 m; draft 11.1 m.

Type: Ship (hazmat cat D). MMSI: 356904000.

Date/timePositionNaut miles runAvg speedWind from/ knotsBaromVisibWave heightAir tempDewpointWater temp
2015-Apr-16 05:16N 29°01' W 094°10'1113.0
2015-Apr-16 04:28N 29°07' W 094°20'1414.3
2015-Apr-16 03:27N 29°15' W 094°34'1311.5
2015-Apr-16 02:21N 29°21' W 094°47'911.0
2015-Apr-16 01:33N 29°29' W 094°51'1010.1
2015-Apr-16 00:34N 29°37' W 094°58'2 1.8
2015-Apr-15 23:32N 29°37' W 095°00'0 0.0
2015-Apr-15 22:31N 29°37' W 095°00'0 0.0
2015-Apr-15 18:33N 29°37' W 095°00'0 0.0
2015-Apr-15 17:29N 29°37' W 095°00'0 0.0
2015-Apr-15 16:29N 29°37' W 095°00'0 0.0
2015-Apr-15 15:31N 29°37' W 095°00'0 0.0
2015-Apr-15 14:31N 29°37' W 095°00'0 0.0
2015-Apr-15 13:33N 29°37' W 095°00'0 0.0
2015-Apr-15 12:33N 29°37' W 095°00'0 0.0
2015-Apr-15 11:33N 29°37' W 095°00'0 0.0
2015-Apr-15 10:29N 29°37' W 095°00'0 0.0
2015-Apr-15 09:32N 29°37' W 095°00'0 0.0
2015-Apr-15 08:31N 29°37' W 095°00'0 0.0
2015-Apr-15 07:31N 29°37' W 095°00'0 0.0
2015-Apr-15 06:33N 29°37' W 095°00'0 0.0
2015-Apr-15 05:33N 29°37' W 095°00'0 0.0
2015-Apr-15 04:33N 29°37' W 095°00'0 0.0
2015-Apr-15 03:32N 29°37' W 095°00'0 0.0
2015-Apr-15 02:29N 29°37' W 095°00'0 0.0
2015-Apr-15 01:31N 29°37' W 095°00'0 0.0
2015-Apr-15 00:31N 29°37' W 095°00'0 0.0
2015-Apr-14 23:33N 29°37' W 095°00'0 0.1
2015-Apr-14 22:33N 29°37' W 095°00'7 7.4
2015-Apr-14 21:33N 29°32' W 094°54'1312.9
2015-Apr-14 20:33N 29°21' W 094°47'1210.2
2015-Apr-14 19:25N 29°17' W 094°34'56615.6
2015-Apr-13 07:13N 19°55' W 095°51'1216.8
2015-Apr-13 06:31N 19°44' W 095°53'1617.0
2015-Apr-13 05:34N 19°28' W 095°56'1616.0
2015-Apr-13 04:33N 19°12' W 096°01'6 6.4
2015-Apr-13 03:33N 19°13' W 096°08'0 0.0
2015-Apr-13 02:33N 19°13' W 096°08'0 0.0
2015-Apr-13 01:33N 19°13' W 096°08'0 0.0
2015-Apr-13 00:32N 19°13' W 096°08'0 0.0
2015-Apr-12 23:32N 19°13' W 096°08'0 0.0
2015-Apr-12 22:32N 19°13' W 096°08'0 0.0
2015-Apr-12 21:31N 19°13' W 096°08'0 0.0
2015-Apr-12 20:31N 19°13' W 096°08'0 0.0
2015-Apr-12 19:30N 19°13' W 096°08'0 0.0
2015-Apr-12 18:33N 19°13' W 096°08'4 4.2
2015-Apr-12 17:33N 19°11' W 096°04'7 7.0
2015-Apr-12 16:33N 19°18' W 096°00'1212.2
2015-Apr-12 15:34N 19°29' W 096°04'  

Dump ship's entire track history